Taylor, ND (58656)

11:30 PM MST on December 09, 2016 (GMT -0700)
East side of 10th | | Change Station
Active Advisory: Wind Chill Advisory

Elev 2444 ft 46.89 °N, 102.77 °W | Updated 8 seconds ago

Partly Cloudy
Partly Cloudy
-13.9 °F
Feels Like -14 °F
N
2.2
Wind Variable Wind from SE

Today
High -- | Low -- °F
--% Chance of Precip.
Yesterday
High -- | Low -- °F
Precip. -- in
Pressure 30.58 in
Visibility 10.0 miles
Clouds Clear
Windchill -14 °F
Dew Point -17 °F
Humidity 85%
Rainfall 0.00 in
Snow Depth Not available.
7:23 AM 4:00 PM
Waxing Gibbous, 81% visible
METAR KDIK 100556Z AUTO 16005KT 10SM CLR M27/M29 A3032 RMK AO2 SLP356 I6000 T12671294 11228 21272 58013
Pressure 30.58 in
Visibility 10.0 miles
Clouds Clear
Windchill -14 °F
Dew Point -17 °F
Humidity 85%
Rainfall 0.00 in
Snow Depth Not available.
7:23 AM 4:00 PM
Waxing Gibbous, 81% visible
METAR KDIK 100556Z AUTO 16005KT 10SM CLR M27/M29 A3032 RMK AO2 SLP356 I6000 T12671294 11228 21272 58013

10-Day Weather Forecast

Almanac

Astronomy

Dec. 09, 2016 Rise Set
Actual Time
Civil Twilight
Nautical Twilight
Astronomical Twilight
Moon
Length of Visible Light
Length of Day
Tomorrow will be .
, % of the Moon is Illuminated

Today's Extremes

State Highs State Lows

Community

WunderPhotos

Upload Photos

1,956,527 photos uploaded!

WunderBlog® & News

Nearby

Air Quality

  Air Quality AQ Index Pollutant
Not available.

Snow Depth

Station Depth Elevation

Earthquake Activity

City Distance Mag. Time & Date
Minimum magnitude displayed is 2.5.

Coastal Water Temperatures

Place Temperature

Stations

Nearby Weather Stations

Station Location Temp. Windchill Dew Point Humidity Wind Precip. Elev Updated Type
                   

Watches & Warnings

Wind Chill Advisory
Issued: 11:11 PM MST Dec. 9, 2016 – National Weather Service

... Wind Chill Advisory remains in effect until noon CST /11 am
MST/ today...

* expect wind chills to range from 25 below zero to 35 below zero
through Saturday morning.

* The cold wind chills will cause frostbite in as little as 30
minutes to exposed skin.

Precautionary/preparedness actions...

Dress warmly and in layers if you need to be outdoors. Make sure
you wear a hat and gloves.



Cjs